createdAt,value
2019-05-14T00:00:13.169Z,53.8
2019-05-14T00:01:13.858Z,57.7
2019-05-14T00:02:14.557Z,58.4
2019-05-14T00:04:31.552Z,58.4
2019-05-14T00:05:32.226Z,57.3
2019-05-14T00:06:32.089Z,57.0
2019-05-14T00:07:32.783Z,59.6
2019-05-14T00:08:33.471Z,60.7
2019-05-14T00:09:34.167Z,59.8
2019-05-14T00:10:34.853Z,59.8
2019-05-14T00:11:35.543Z,58.4
2019-05-14T00:12:36.242Z,58.8
2019-05-14T00:13:36.923Z,60.0
2019-05-14T00:14:40.171Z,59.4
2019-05-14T00:15:38.296Z,59.5
2019-05-14T00:16:38.982Z,59.4
2019-05-14T00:17:41.592Z,58.8
2019-05-14T00:18:42.029Z,59.9
2019-05-14T00:19:41.617Z,58.5
2019-05-14T00:21:57.197Z,57.8
2019-05-14T00:24:13.362Z,56.9
2019-05-14T00:25:14.046Z,56.9
2019-05-14T00:26:14.748Z,56.9
2019-05-14T00:27:15.400Z,57.8
2019-05-14T00:28:16.067Z,56.8
2019-05-14T00:29:16.805Z,58.2
2019-05-14T00:30:17.482Z,57.8
2019-05-14T00:31:18.167Z,56.6
2019-05-14T00:32:18.863Z,56.9
2019-05-14T00:33:19.547Z,54.7
2019-05-14T00:34:21.449Z,55.5
2019-05-14T00:35:21.580Z,57.1
2019-05-14T00:36:21.688Z,58.2
2019-05-14T00:37:22.292Z,56.5
2019-05-14T00:38:22.984Z,56.8
2019-05-14T00:39:23.678Z,56.7
2019-05-14T00:40:24.368Z,56.4
2019-05-14T00:41:25.062Z,55.5
2019-05-14T00:42:25.776Z,52.1
2019-05-14T00:43:26.474Z,53.1
2019-05-14T00:44:27.159Z,54.1
2019-05-14T00:45:27.852Z,53.3
2019-05-14T00:46:28.539Z,53.9
2019-05-14T00:47:31.008Z,53.9
2019-05-14T00:48:31.845Z,53.6
2019-05-14T00:49:31.646Z,52.9
2019-05-14T00:50:31.768Z,53.5
2019-05-14T00:51:31.965Z,53.8
2019-05-14T00:52:32.678Z,52.2
2019-05-14T00:54:48.815Z,51.1
2019-05-14T00:55:51.647Z,49.8
2019-05-14T00:56:52.116Z,47.8
2019-05-14T00:57:52.241Z,46.5
2019-05-14T00:58:52.181Z,44.2
2019-05-14T00:59:52.335Z,44.2
2019-05-14T01:02:08.446Z,41.8
2019-05-14T01:03:11.114Z,41.6
2019-05-14T01:04:11.767Z,41.5
2019-05-14T01:05:12.463Z,40.1
2019-05-14T01:07:27.797Z,38.8
2019-05-14T01:08:28.489Z,37.8
2019-05-14T01:09:31.370Z,37.2
2019-05-14T01:10:31.318Z,37.0
2019-05-14T01:11:31.500Z,35.5
2019-05-14T01:12:31.797Z,35.4
2019-05-14T01:13:31.947Z,34.9
2019-05-14T01:14:32.638Z,34.2
2019-05-14T01:15:33.335Z,34.7
2019-05-14T01:16:34.040Z,35.2
2019-05-14T01:18:51.355Z,34.7
2019-05-14T01:19:51.459Z,34.6
2019-05-14T01:20:52.017Z,35.5
2019-05-14T01:21:52.241Z,35.8
2019-05-14T01:22:52.939Z,36.2
2019-05-14T01:23:53.627Z,37.0
2019-05-14T01:26:11.536Z,38.9
2019-05-14T01:27:12.417Z,39.2
2019-05-14T01:28:11.366Z,39.8
2019-05-14T01:29:12.121Z,39.7
2019-05-14T01:30:12.682Z,40.3
2019-05-14T01:31:14.772Z,39.8
2019-05-14T01:32:13.919Z,40.0
2019-05-14T01:33:14.637Z,41.4
2019-05-14T01:34:15.343Z,42.1
2019-05-14T01:35:15.995Z,43.0
2019-05-14T01:36:16.866Z,43.6
2019-05-14T01:38:33.057Z,43.6
2019-05-14T01:39:33.762Z,46.8
2019-05-14T01:40:34.475Z,49.5
2019-05-14T01:41:35.168Z,51.0
2019-05-14T01:43:51.464Z,51.0
2019-05-14T01:44:52.191Z,51.0
2019-05-14T01:45:52.802Z,51.3
2019-05-14T01:46:53.638Z,51.0
2019-05-14T01:47:54.283Z,51.0
2019-05-14T01:48:54.984Z,51.6
2019-05-14T01:51:11.935Z,51.4
2019-05-14T01:52:11.918Z,50.8
2019-05-14T01:53:12.681Z,49.2
2019-05-14T01:54:13.383Z,49.3
2019-05-14T01:55:14.096Z,50.5
2019-05-14T01:56:14.788Z,50.5
2019-05-14T01:57:15.477Z,50.0
2019-05-14T01:58:16.172Z,50.2
2019-05-14T01:59:16.885Z,50.3
2019-05-14T02:01:33.260Z,49.2
2019-05-14T02:02:33.958Z,49.2
2019-05-14T02:03:34.686Z,49.2
2019-05-14T02:04:35.388Z,48.8
2019-05-14T02:05:36.096Z,48.5
2019-05-14T02:06:36.813Z,49.1
2019-05-14T02:07:37.527Z,49.9
2019-05-14T02:08:38.226Z,49.7
2019-05-14T02:10:54.391Z,48.1
2019-05-14T02:11:55.114Z,45.5
2019-05-14T02:15:37.156Z,41.2
2019-05-14T02:16:28.492Z,41.8
2019-05-14T02:17:29.167Z,41.1
2019-05-14T02:18:31.151Z,40.4
2019-05-14T02:19:31.643Z,38.8
2019-05-14T02:20:32.190Z,36.1
2019-05-14T02:21:32.007Z,36.1
2019-05-14T02:23:48.349Z,35.2
2019-05-14T02:24:49.211Z,34.5
2019-05-14T02:25:51.828Z,34.4
2019-05-14T02:28:06.154Z,33.9
2019-05-14T02:29:06.873Z,34.6
2019-05-14T02:30:07.634Z,34.1
2019-05-14T02:31:09.378Z,33.9
2019-05-14T02:32:10.460Z,33.8
2019-05-14T02:33:09.952Z,33.2
2019-05-14T02:34:10.657Z,32.1
2019-05-14T02:36:26.815Z,31.8
2019-05-14T02:37:30.115Z,31.3
2019-05-14T02:38:29.905Z,31.7
2019-05-14T02:39:29.344Z,32.1
2019-05-14T02:40:29.808Z,30.2
2019-05-14T02:41:30.313Z,30.6
2019-05-14T02:42:31.020Z,30.3
2019-05-14T02:44:49.004Z,30.0
2019-05-14T02:46:04.838Z,30.0
2019-05-14T02:46:50.537Z,30.3
2019-05-14T02:47:50.478Z,31.5
2019-05-14T02:48:50.620Z,28.6
2019-05-14T02:49:51.222Z,27.6
2019-05-14T02:50:51.940Z,27.7
2019-05-14T02:51:52.627Z,25.3
2019-05-14T02:52:53.328Z,24.7
2019-05-14T02:55:09.700Z,24.9
2019-05-14T02:56:10.596Z,24.9
2019-05-14T02:57:10.989Z,24.9
2019-05-14T02:58:11.564Z,25.2
2019-05-14T03:00:30.093Z,25.1
2019-05-14T03:02:44.019Z,20.9
2019-05-14T03:03:44.703Z,21.1
2019-05-14T03:06:00.984Z,21.4
2019-05-14T03:07:01.552Z,20.5
2019-05-14T03:08:02.254Z,19.4
2019-05-14T03:09:03.009Z,19.8
2019-05-14T03:10:03.707Z,19.2
2019-05-14T03:11:04.409Z,18.4
2019-05-14T03:12:05.102Z,18.2
2019-05-14T03:13:05.794Z,17.6
2019-05-14T03:14:09.013Z,18.0
2019-05-14T03:16:31.052Z,17.4
2019-05-14T03:17:23.491Z,16.4
2019-05-14T03:18:24.179Z,15.7
2019-05-14T03:19:24.877Z,15.5
2019-05-14T03:25:30.061Z,14.1
2019-05-14T03:26:29.321Z,13.4
2019-05-14T03:31:15.281Z,13.0
2019-05-14T03:32:15.980Z,12.1
2019-05-14T03:33:21.341Z,11.7
2019-05-14T03:34:21.861Z,11.7
2019-05-14T03:35:23.295Z,11.2
2019-05-14T03:37:34.347Z,9.8
2019-05-14T03:38:35.096Z,9.7
2019-05-14T03:39:35.837Z,9.7
2019-05-14T03:40:39.721Z,9.6
2019-05-14T03:41:39.721Z,8.9
2019-05-14T03:42:39.961Z,10.2
2019-05-14T03:43:39.236Z,9.9
2019-05-14T03:45:54.839Z,10.1
2019-05-14T03:49:28.814Z,9.8
2019-05-14T03:50:29.800Z,9.8
2019-05-14T03:51:29.782Z,10.1
2019-05-14T03:52:29.446Z,9.7
2019-05-14T03:53:29.763Z,9.6
2019-05-14T03:54:30.194Z,9.2
2019-05-14T03:55:30.634Z,9.5
2019-05-14T03:57:49.786Z,9.2
2019-05-14T03:58:49.389Z,8.3
2019-05-14T03:59:49.981Z,8.1
2019-05-14T04:00:50.475Z,8.3
2019-05-14T04:01:51.156Z,8.6
2019-05-14T04:02:50.370Z,8.3
2019-05-14T04:03:51.116Z,7.5
2019-05-14T04:06:10.062Z,7.1
2019-05-14T04:07:09.700Z,6.7
2019-05-14T04:08:09.810Z,6.8
2019-05-14T04:09:09.897Z,6.6
2019-05-14T04:10:10.623Z,6.6
2019-05-14T04:11:11.085Z,6.6
2019-05-14T04:12:11.786Z,6.5
2019-05-14T04:14:29.138Z,6.4
2019-05-14T04:15:29.832Z,6.9
2019-05-14T04:16:29.391Z,7.2
2019-05-14T04:17:37.043Z,7.7
2019-05-14T04:23:32.760Z,7.0
2019-05-14T04:24:36.835Z,6.9
2019-05-14T04:27:02.275Z,6.8
2019-05-14T04:27:51.289Z,6.5
2019-05-14T04:28:51.989Z,7.5
2019-05-14T04:29:52.750Z,7.6
2019-05-14T04:30:53.468Z,7.8
2019-05-14T04:31:54.160Z,8.3
2019-05-14T04:34:10.868Z,7.7
2019-05-14T04:35:11.043Z,7.6
2019-05-14T04:36:11.738Z,7.9
2019-05-14T04:37:12.465Z,7.9
2019-05-14T04:38:13.125Z,8.0
2019-05-14T04:39:13.816Z,8.3
2019-05-14T04:40:14.510Z,8.5
2019-05-14T04:42:30.685Z,8.2
2019-05-14T04:43:31.381Z,8.6
2019-05-14T04:44:32.099Z,8.9
2019-05-14T04:45:32.770Z,9.1
2019-05-14T04:46:33.481Z,9.8
2019-05-14T04:47:37.621Z,10.8
2019-05-14T04:48:41.544Z,10.9
2019-05-14T04:50:51.130Z,11.5
2019-05-14T04:51:51.814Z,11.6
2019-05-14T04:52:52.521Z,11.8
2019-05-14T04:53:53.220Z,11.9
2019-05-14T04:54:53.915Z,11.4
2019-05-14T04:55:54.611Z,11.5
2019-05-14T05:00:41.741Z,12.8
2019-05-14T05:01:42.438Z,12.9
2019-05-14T05:02:43.163Z,13.3
2019-05-14T05:03:43.821Z,13.6
2019-05-14T05:04:44.541Z,16.2
2019-05-14T05:05:45.249Z,18.5
2019-05-14T05:06:45.932Z,19.7
2019-05-14T05:07:49.202Z,22.9
2019-05-14T05:08:49.797Z,25.0
2019-05-14T05:09:50.243Z,25.9
2019-05-14T05:12:04.436Z,30.3
2019-05-14T05:13:05.130Z,31.6
2019-05-14T05:14:08.620Z,34.6
2019-05-14T05:15:08.521Z,37.2
2019-05-14T05:16:09.981Z,39.5
2019-05-14T05:17:09.196Z,43.2
2019-05-14T05:18:09.604Z,46.5
2019-05-14T05:19:10.503Z,51.2
2019-05-14T05:21:28.167Z,55.2
2019-05-14T05:22:28.521Z,58.7
2019-05-14T05:23:28.236Z,61.5
2019-05-14T05:24:28.760Z,64.6
2019-05-14T05:25:29.228Z,68.5
2019-05-14T05:26:29.206Z,77.6
2019-05-14T05:29:01.764Z,84.2
2019-05-14T05:29:48.379Z,83.8
2019-05-14T05:30:49.098Z,84.8
2019-05-14T05:31:48.904Z,86.5
2019-05-14T05:32:49.581Z,86.4
2019-05-14T05:33:49.853Z,84.1
2019-05-14T05:34:50.516Z,80.1
2019-05-14T05:35:51.214Z,78.4
2019-05-14T05:36:51.925Z,77.0
2019-05-14T05:37:52.620Z,77.0
2019-05-14T05:40:09.327Z,77.0
2019-05-14T05:41:09.491Z,78.2
2019-05-14T05:42:10.191Z,77.2
2019-05-14T05:43:10.894Z,76.2
2019-05-14T05:44:11.603Z,76.8
2019-05-14T05:46:28.559Z,78.4
2019-05-14T05:47:28.838Z,78.8
2019-05-14T05:48:29.245Z,83.1
2019-05-14T05:49:29.944Z,82.6
2019-05-14T05:50:30.651Z,82.1
2019-05-14T05:51:31.349Z,79.9
2019-05-14T05:53:48.331Z,83.0
2019-05-14T05:54:48.949Z,84.9
2019-05-14T05:55:48.926Z,85.6
2019-05-14T05:56:49.587Z,87.8
2019-05-14T05:57:50.287Z,91.4
2019-05-14T05:58:51.000Z,92.3
2019-05-14T05:59:51.710Z,90.9
2019-05-14T06:00:52.450Z,90.5
2019-05-14T06:03:10.819Z,89.7
2019-05-14T06:04:09.331Z,90.3
2019-05-14T06:05:10.029Z,87.9
2019-05-14T06:06:13.528Z,91.0
2019-05-14T06:07:11.467Z,93.8
2019-05-14T06:08:12.122Z,94.0
2019-05-14T06:10:29.215Z,94.8
2019-05-14T06:11:29.208Z,96.6
2019-05-14T06:12:29.790Z,95.2
2019-05-14T06:13:30.447Z,94.5
2019-05-14T06:14:31.147Z,96.5
2019-05-14T06:15:44.622Z,97.1
2019-05-14T06:16:32.547Z,97.9
2019-05-14T06:17:33.231Z,96.7
2019-05-14T06:19:49.401Z,100.0
2019-05-14T06:22:05.672Z,100.0
2019-05-14T06:23:08.467Z,100.0
2019-05-14T06:24:09.070Z,100.0
2019-05-14T06:25:11.241Z,100.0
2019-05-14T06:26:11.350Z,100.0
2019-05-14T06:27:09.630Z,100.0
2019-05-14T06:28:10.233Z,100.0
2019-05-14T06:29:10.894Z,100.0
2019-05-14T06:30:11.610Z,100.0
2019-05-14T06:32:29.062Z,100.0
2019-05-14T06:34:44.060Z,100.0
2019-05-14T06:35:44.734Z,100.0
2019-05-14T06:36:45.433Z,100.0
2019-05-14T06:39:01.725Z,100.0
2019-05-14T06:40:02.499Z,100.0
2019-05-14T06:41:03.129Z,100.0
2019-05-14T06:42:03.833Z,100.0
2019-05-14T06:43:05.106Z,100.0
2019-05-14T06:44:05.713Z,100.0
2019-05-14T06:45:08.827Z,100.0
2019-05-14T06:46:09.061Z,100.0
2019-05-14T06:48:30.841Z,100.0
2019-05-14T06:49:24.431Z,100.0
2019-05-14T06:50:25.138Z,100.0
2019-05-14T06:51:28.637Z,100.0
2019-05-14T06:54:58.240Z,100.0
2019-05-14T06:58:29.948Z,100.0
2019-05-14T06:59:30.049Z,100.0
2019-05-14T07:01:46.235Z,100.0
2019-05-14T07:02:49.117Z,100.0
2019-05-14T07:03:49.074Z,100.0
2019-05-14T07:04:49.305Z,100.0
2019-05-14T07:05:50.403Z,100.0
2019-05-14T07:06:51.107Z,100.0
2019-05-14T07:09:08.244Z,100.0
2019-05-14T07:10:08.982Z,100.0
2019-05-14T07:11:08.801Z,100.0
2019-05-14T07:12:09.392Z,100.0
2019-05-14T07:13:10.099Z,100.0
2019-05-14T07:15:28.855Z,100.0
2019-05-14T07:16:28.693Z,100.0
2019-05-14T07:17:28.770Z,100.0
2019-05-14T07:18:33.377Z,100.0
2019-05-14T07:19:29.608Z,100.0
2019-05-14T07:20:29.865Z,100.0
2019-05-14T07:21:30.538Z,100.0
2019-05-14T07:22:31.239Z,100.0
2019-05-14T07:24:49.724Z,100.0
2019-05-14T07:25:49.088Z,100.0
2019-05-14T07:26:49.793Z,100.0
2019-05-14T07:27:50.506Z,100.0
2019-05-14T07:28:51.204Z,100.0
2019-05-14T07:29:51.914Z,100.0
2019-05-14T07:32:09.088Z,100.0
2019-05-14T07:33:09.418Z,100.0
2019-05-14T07:34:09.499Z,100.0
2019-05-14T07:35:10.200Z,100.0
2019-05-14T07:36:10.905Z,100.0
2019-05-14T07:37:11.614Z,100.0
2019-05-14T07:38:12.304Z,100.0
2019-05-14T07:39:13.006Z,100.0
2019-05-14T07:41:29.199Z,100.0
2019-05-14T07:42:29.902Z,100.0
2019-05-14T07:43:30.606Z,96.5
2019-05-14T07:44:31.308Z,88.9
2019-05-14T07:45:33.418Z,89.4
2019-05-14T07:46:32.764Z,85.8
2019-05-14T07:47:33.474Z,83.0
2019-05-14T07:48:34.176Z,82.9
2019-05-14T07:49:34.898Z,83.9
2019-05-14T07:51:51.095Z,76.9
2019-05-14T07:52:51.801Z,74.0
2019-05-14T07:53:52.494Z,73.1
2019-05-14T07:54:53.197Z,73.7
2019-05-14T07:55:53.907Z,76.6
2019-05-14T07:56:54.614Z,74.1
2019-05-14T07:57:55.312Z,73.5
2019-05-14T08:02:42.478Z,71.9
2019-05-14T08:03:43.185Z,73.8
2019-05-14T08:04:43.894Z,75.3
2019-05-14T08:05:44.598Z,72.1
2019-05-14T08:06:45.306Z,71.5
2019-05-14T08:07:47.961Z,72.8
2019-05-14T08:08:49.020Z,73.0
2019-05-14T08:11:02.930Z,71.2
2019-05-14T08:12:03.631Z,69.4
2019-05-14T08:13:04.339Z,68.3
2019-05-14T08:14:05.051Z,68.5
2019-05-14T08:15:17.397Z,68.7
2019-05-14T08:16:08.781Z,68.8
2019-05-14T08:18:23.638Z,66.6
2019-05-14T08:19:27.233Z,66.3
2019-05-14T08:20:25.055Z,65.7
2019-05-14T08:21:28.048Z,65.4
2019-05-14T08:22:28.967Z,64.0
2019-05-14T08:23:28.174Z,64.4
2019-05-14T08:25:43.392Z,63.7
2019-05-14T08:26:44.301Z,64.3
2019-05-14T08:27:44.811Z,65.4
2019-05-14T08:28:45.523Z,65.5
2019-05-14T08:29:48.437Z,64.1
2019-05-14T08:30:48.942Z,64.2
2019-05-14T08:31:48.782Z,64.9
2019-05-14T08:34:05.125Z,66.9
2019-05-14T08:35:04.572Z,68.5
2019-05-14T08:36:05.256Z,70.5
2019-05-14T08:37:08.100Z,71.9
2019-05-14T08:38:11.364Z,70.2
2019-05-14T08:39:08.776Z,68.2
2019-05-14T08:40:09.458Z,69.2
2019-05-14T08:41:08.780Z,66.6
2019-05-14T08:43:24.978Z,66.2
2019-05-14T08:44:25.682Z,64.9
2019-05-14T08:45:28.240Z,63.1
2019-05-14T08:46:28.308Z,65.6
2019-05-14T08:47:29.158Z,67.2
2019-05-14T08:48:29.605Z,66.4
2019-05-14T08:50:44.690Z,64.3
2019-05-14T08:51:45.390Z,64.4
2019-05-14T08:52:48.166Z,62.3
2019-05-14T08:53:49.727Z,62.1
2019-05-14T08:54:50.521Z,61.6
2019-05-14T08:55:48.841Z,61.9
2019-05-14T08:56:49.193Z,63.3
2019-05-14T08:57:49.837Z,64.2
2019-05-14T08:58:50.360Z,63.1
2019-05-14T09:01:08.232Z,62.0
2019-05-14T09:02:10.416Z,63.0
2019-05-14T09:03:08.459Z,61.1
2019-05-14T09:04:09.160Z,60.0
2019-05-14T09:05:10.377Z,59.6
2019-05-14T09:06:10.086Z,59.6
2019-05-14T09:07:10.802Z,59.4
2019-05-14T09:09:28.979Z,58.0
2019-05-14T09:10:28.556Z,58.9
2019-05-14T09:11:34.999Z,58.1
2019-05-14T09:12:29.123Z,58.2
2019-05-14T09:16:00.959Z,58.0
2019-05-14T09:18:18.508Z,54.2
2019-05-14T09:19:19.264Z,52.8
2019-05-14T09:20:18.848Z,52.9
2019-05-14T09:21:20.508Z,53.0
2019-05-14T09:22:20.954Z,51.1
2019-05-14T09:23:21.658Z,51.0
2019-05-14T09:25:46.402Z,52.3
2019-05-14T09:26:39.065Z,52.0
2019-05-14T09:27:39.330Z,50.6
2019-05-14T09:28:40.036Z,52.6
2019-05-14T09:29:40.756Z,51.2
2019-05-14T09:30:41.457Z,52.1
2019-05-14T09:31:42.168Z,51.0
2019-05-14T09:33:58.532Z,51.1
2019-05-14T09:34:59.137Z,51.6
2019-05-14T09:38:30.935Z,53.2
2019-05-14T09:39:31.785Z,53.0
2019-05-14T09:41:48.341Z,52.2
2019-05-14T09:42:50.063Z,53.7
2019-05-14T09:43:49.474Z,52.9
2019-05-14T09:44:50.188Z,52.5
2019-05-14T09:45:50.884Z,51.9
2019-05-14T09:46:51.561Z,51.0
2019-05-14T09:47:52.335Z,49.7
2019-05-14T09:50:16.649Z,50.9
2019-05-14T09:51:09.424Z,52.2
2019-05-14T09:52:09.942Z,53.2
2019-05-14T09:53:10.646Z,52.4
2019-05-14T09:54:11.359Z,52.6
2019-05-14T09:55:12.089Z,52.2
2019-05-14T09:56:12.808Z,50.8
2019-05-14T09:58:29.017Z,52.5
2019-05-14T09:59:29.731Z,50.0
2019-05-14T10:00:30.406Z,48.3
2019-05-14T10:01:31.122Z,48.8
2019-05-14T10:02:31.827Z,48.9
2019-05-14T10:03:32.540Z,48.4
2019-05-14T10:04:33.241Z,48.5
2019-05-14T10:05:33.953Z,48.1
2019-05-14T10:07:50.151Z,51.0
2019-05-14T10:08:50.861Z,50.1
2019-05-14T10:09:51.543Z,49.1
2019-05-14T10:10:52.256Z,49.3
2019-05-14T10:11:52.967Z,50.4
2019-05-14T10:12:57.011Z,49.7
2019-05-14T10:13:54.384Z,49.7
2019-05-14T10:14:55.107Z,48.6
2019-05-14T10:17:11.300Z,47.6
2019-05-14T10:18:12.460Z,48.1
2019-05-14T10:19:12.704Z,49.2
2019-05-14T10:20:13.416Z,49.1
2019-05-14T10:21:14.127Z,48.9
2019-05-14T10:22:14.830Z,48.4
2019-05-14T10:23:15.562Z,47.5
2019-05-14T10:25:31.751Z,48.0
2019-05-14T10:26:32.514Z,47.8
2019-05-14T10:27:33.223Z,48.3
2019-05-14T10:28:33.933Z,48.0
2019-05-14T10:29:34.649Z,48.1
2019-05-14T10:30:35.356Z,46.4
2019-05-14T10:31:36.067Z,45.8
2019-05-14T10:32:39.687Z,47.1
2019-05-14T10:34:52.967Z,49.5
2019-05-14T10:35:53.685Z,49.1
2019-05-14T10:36:54.393Z,49.6
2019-05-14T10:37:55.092Z,49.6
2019-05-14T10:40:11.295Z,50.3
2019-05-14T10:43:43.096Z,49.6
2019-05-14T10:44:43.800Z,49.0
2019-05-14T10:45:44.520Z,47.5
2019-05-14T10:46:45.219Z,47.6
2019-05-14T10:47:45.926Z,46.1
2019-05-14T10:51:18.201Z,47.1
2019-05-14T10:52:19.810Z,47.6
2019-05-14T10:53:20.427Z,48.7
2019-05-14T10:54:25.176Z,45.9
2019-05-14T10:56:36.917Z,45.6
2019-05-14T10:57:37.628Z,46.1
2019-05-14T10:58:38.379Z,47.1
2019-05-14T10:59:39.093Z,48.5
2019-05-14T11:00:41.842Z,48.6
2019-05-14T11:01:40.495Z,49.3
2019-05-14T11:05:12.200Z,49.0
2019-05-14T11:07:29.231Z,46.1
2019-05-14T11:08:29.751Z,45.7
2019-05-14T11:09:29.812Z,44.3
2019-05-14T11:10:30.525Z,44.4
2019-05-14T11:12:46.726Z,44.5
2019-05-14T11:13:47.440Z,46.2
2019-05-14T11:14:49.366Z,45.8
2019-05-14T11:15:48.928Z,46.9
2019-05-14T11:16:49.545Z,48.2
2019-05-14T11:17:50.258Z,49.2
2019-05-14T11:20:08.113Z,50.2
2019-05-14T11:21:21.571Z,50.2
2019-05-14T11:22:08.875Z,49.7
2019-05-14T11:23:09.590Z,49.1
2019-05-14T11:24:10.350Z,49.2
2019-05-14T11:25:11.025Z,47.5
2019-05-14T11:27:29.190Z,44.7
2019-05-14T11:28:28.653Z,44.4
2019-05-14T11:29:29.489Z,44.4
2019-05-14T11:30:29.351Z,44.4
2019-05-14T11:31:34.073Z,44.2
2019-05-14T11:32:30.877Z,45.9
2019-05-14T11:33:31.583Z,45.0
2019-05-14T11:35:47.783Z,49.3
2019-05-14T11:36:49.684Z,50.0
2019-05-14T11:37:49.237Z,50.1
2019-05-14T11:38:50.978Z,51.0
2019-05-14T11:39:50.610Z,51.2
2019-05-14T11:40:51.320Z,50.7
2019-05-14T11:41:52.030Z,51.0
2019-05-14T11:42:52.739Z,49.9
2019-05-14T11:45:09.142Z,47.1
2019-05-14T11:46:09.775Z,44.4
2019-05-14T11:47:10.459Z,42.7
2019-05-14T11:48:11.170Z,40.5
2019-05-14T11:49:12.116Z,41.8
2019-05-14T11:50:12.741Z,43.0
2019-05-14T11:51:13.450Z,44.5
2019-05-14T11:52:14.154Z,44.3
2019-05-14T11:54:30.558Z,44.4
2019-05-14T11:55:31.269Z,42.5
2019-05-14T11:56:31.986Z,43.1
2019-05-14T11:57:32.675Z,43.5
2019-05-14T11:58:33.385Z,43.2
2019-05-14T11:59:34.095Z,41.5
2019-05-14T12:00:34.808Z,42.2
2019-05-14T12:01:35.513Z,42.6
2019-05-14T12:03:51.745Z,41.7
2019-05-14T12:04:52.493Z,41.0
2019-05-14T12:05:53.166Z,39.6
2019-05-14T12:06:53.864Z,40.4
2019-05-14T12:07:54.571Z,41.1
2019-05-14T12:08:55.292Z,41.7
2019-05-14T12:11:11.491Z,39.3
2019-05-14T12:12:12.919Z,37.9
2019-05-14T12:15:44.022Z,39.3
2019-05-14T12:18:00.237Z,39.0
2019-05-14T12:19:00.942Z,37.6
2019-05-14T12:20:01.673Z,38.8
2019-05-14T12:21:02.359Z,39.4
2019-05-14T12:22:07.728Z,39.7
2019-05-14T12:23:04.750Z,41.2
2019-05-14T12:24:06.363Z,42.5
2019-05-14T12:25:08.112Z,43.0
2019-05-14T12:26:09.323Z,41.3
2019-05-14T12:28:23.068Z,41.3
2019-05-14T12:29:23.764Z,39.6
2019-05-14T12:30:24.474Z,38.9
2019-05-14T12:32:40.678Z,38.9
2019-05-14T12:33:41.401Z,39.5
2019-05-14T12:34:42.091Z,40.7
2019-05-14T12:35:42.806Z,39.1
2019-05-14T12:36:43.482Z,38.6
2019-05-14T12:37:44.195Z,39.5
2019-05-14T12:38:44.902Z,39.5
2019-05-14T12:39:45.617Z,39.6
2019-05-14T12:40:46.329Z,39.0
2019-05-14T12:41:49.050Z,37.7
2019-05-14T12:42:49.872Z,38.1
2019-05-14T12:43:48.463Z,38.9
2019-05-14T12:44:49.168Z,37.9
2019-05-14T12:45:49.879Z,38.5
2019-05-14T12:46:50.585Z,39.5
2019-05-14T12:49:06.802Z,39.3
2019-05-14T12:50:09.408Z,40.3
2019-05-14T12:51:09.008Z,41.6
2019-05-14T12:52:21.091Z,42.4
2019-05-14T12:53:09.627Z,43.3
2019-05-14T12:54:10.331Z,44.0
2019-05-14T12:56:29.109Z,43.5
2019-05-14T12:57:29.987Z,42.2
2019-05-14T12:58:28.550Z,42.4
2019-05-14T12:59:28.713Z,42.0
2019-05-14T13:00:29.439Z,41.9
2019-05-14T13:01:30.696Z,42.0
2019-05-14T13:02:31.337Z,40.8
2019-05-14T13:03:32.035Z,39.1
2019-05-14T13:05:49.156Z,38.7
2019-05-14T13:06:48.959Z,37.5
2019-05-14T13:07:51.161Z,36.6
2019-05-14T13:08:50.370Z,36.5
2019-05-14T13:09:51.049Z,35.7
2019-05-14T13:10:51.732Z,35.9
2019-05-14T13:11:52.405Z,36.0
2019-05-14T13:14:08.604Z,35.9
2019-05-14T13:15:09.303Z,37.2
2019-05-14T13:16:09.999Z,35.0
2019-05-14T13:17:10.702Z,35.4
2019-05-14T13:18:11.416Z,36.7
2019-05-14T13:19:12.123Z,35.8
2019-05-14T13:20:13.939Z,35.8
2019-05-14T13:21:13.546Z,36.2
2019-05-14T13:22:17.838Z,34.8
2019-05-14T13:23:14.949Z,36.1
2019-05-14T13:25:31.155Z,35.6
2019-05-14T13:26:31.876Z,34.6
2019-05-14T13:27:32.584Z,35.3
2019-05-14T13:28:33.295Z,36.3
2019-05-14T13:29:34.005Z,37.3
2019-05-14T13:31:50.217Z,36.3
2019-05-14T13:32:50.928Z,36.2
2019-05-14T13:33:51.644Z,37.1
2019-05-14T13:34:52.363Z,39.3
2019-05-14T13:35:53.074Z,38.8
2019-05-14T13:36:53.782Z,38.9
2019-05-14T13:39:09.986Z,39.0
2019-05-14T13:40:13.631Z,38.9
2019-05-14T13:41:11.411Z,38.8
2019-05-14T13:42:12.194Z,38.9
2019-05-14T13:43:14.477Z,37.8
2019-05-14T13:44:21.205Z,35.8
2019-05-14T13:45:14.450Z,35.1
2019-05-14T13:46:15.416Z,36.8
2019-05-14T13:48:31.352Z,37.2
2019-05-14T13:49:32.070Z,36.1
2019-05-14T13:50:32.776Z,37.8
2019-05-14T13:51:33.807Z,38.0
2019-05-14T13:52:34.208Z,37.5
2019-05-14T13:53:34.915Z,37.3
2019-05-14T13:54:35.644Z,38.0
2019-05-14T13:56:51.837Z,38.2
2019-05-14T13:57:52.548Z,38.9
2019-05-14T13:58:53.262Z,37.1
2019-05-14T13:59:53.973Z,35.7
2019-05-14T14:00:54.694Z,35.4
2019-05-14T14:03:10.914Z,35.1
2019-05-14T14:04:15.048Z,35.4
2019-05-14T14:05:12.342Z,35.6
2019-05-14T14:06:13.042Z,36.7
2019-05-14T14:07:13.759Z,36.2
2019-05-14T14:08:14.469Z,36.1
2019-05-14T14:09:15.208Z,34.8
2019-05-14T14:10:15.901Z,34.7
2019-05-14T14:11:16.610Z,35.2
2019-05-14T14:13:32.816Z,33.5
2019-05-14T14:14:33.526Z,34.0
2019-05-14T14:15:34.234Z,32.9
2019-05-14T14:16:34.936Z,33.3
2019-05-14T14:17:35.655Z,33.3
2019-05-14T14:18:38.836Z,34.8
2019-05-14T14:19:38.872Z,34.6
2019-05-14T14:21:53.266Z,35.0
2019-05-14T14:22:53.981Z,35.4
2019-05-14T14:23:54.691Z,35.0
2019-05-14T14:27:29.735Z,35.1
2019-05-14T14:28:27.223Z,34.1
2019-05-14T14:29:27.938Z,34.2
2019-05-14T14:31:44.140Z,35.4
2019-05-14T14:32:44.868Z,36.4
2019-05-14T14:33:48.477Z,37.0
2019-05-14T14:34:46.265Z,37.4
2019-05-14T14:35:48.625Z,38.6
2019-05-14T14:36:49.903Z,39.7
2019-05-14T14:37:49.369Z,39.4
2019-05-14T14:40:04.582Z,41.3
2019-05-14T14:41:05.313Z,42.2
2019-05-14T14:42:06.002Z,42.7
2019-05-14T14:43:06.713Z,42.3
2019-05-14T14:44:08.867Z,41.1
2019-05-14T14:45:09.094Z,41.1
2019-05-14T14:47:25.291Z,39.8
2019-05-14T14:48:25.998Z,40.5
2019-05-14T14:49:28.120Z,40.3
2019-05-14T14:50:29.007Z,39.6
2019-05-14T14:51:28.585Z,42.1
2019-05-14T14:52:29.265Z,40.8
2019-05-14T14:54:45.041Z,40.7
2019-05-14T14:55:49.496Z,41.3
2019-05-14T14:56:48.554Z,41.5
2019-05-14T14:57:53.735Z,41.8
2019-05-14T14:58:49.294Z,41.5
2019-05-14T14:59:48.844Z,41.8
2019-05-14T15:00:49.287Z,41.3
2019-05-14T15:01:50.418Z,42.0
2019-05-14T15:04:12.845Z,41.8
2019-05-14T15:05:13.309Z,42.0
2019-05-14T15:06:09.727Z,42.1
2019-05-14T15:07:09.657Z,42.3
2019-05-14T15:08:10.336Z,42.7
2019-05-14T15:09:09.920Z,42.9
2019-05-14T15:10:10.556Z,42.4
2019-05-14T15:11:11.237Z,42.4
2019-05-14T15:13:27.436Z,43.4
2019-05-14T15:14:29.704Z,43.7
2019-05-14T15:15:32.078Z,44.5
2019-05-14T15:16:29.556Z,43.5
2019-05-14T15:17:30.273Z,44.3
2019-05-14T15:18:30.975Z,44.8
2019-05-14T15:19:31.688Z,43.7
2019-05-14T15:21:48.922Z,44.8
2019-05-14T15:22:49.342Z,43.4
2019-05-14T15:24:05.976Z,43.7
2019-05-14T15:24:49.990Z,43.8
2019-05-14T15:25:50.695Z,44.2
2019-05-14T15:26:51.439Z,46.4
2019-05-14T15:27:52.131Z,47.6
2019-05-14T15:30:08.427Z,44.3
2019-05-14T15:31:09.226Z,44.6
2019-05-14T15:32:09.851Z,45.0
2019-05-14T15:33:10.748Z,44.4
2019-05-14T15:34:11.554Z,44.4
2019-05-14T15:35:12.237Z,44.3
2019-05-14T15:37:31.396Z,44.3
2019-05-14T15:38:30.665Z,45.2
2019-05-14T15:39:30.433Z,45.4
2019-05-14T15:40:30.609Z,45.0
2019-05-14T15:41:31.330Z,45.2
2019-05-14T15:42:32.026Z,44.9
2019-05-14T15:43:32.779Z,46.2
2019-05-14T15:44:47.297Z,45.9
2019-05-14T15:46:49.720Z,46.1
2019-05-14T15:47:50.411Z,46.0
2019-05-14T15:48:51.125Z,46.3
2019-05-14T15:49:51.795Z,46.7
2019-05-14T15:50:52.507Z,46.6
2019-05-14T15:51:53.215Z,46.3
2019-05-14T15:54:34.446Z,47.7
2019-05-14T15:55:10.112Z,46.2
2019-05-14T15:56:10.823Z,46.0
2019-05-14T15:57:11.529Z,47.4
2019-05-14T15:58:12.239Z,47.5
2019-05-14T15:59:12.945Z,47.4
2019-05-14T16:00:13.653Z,47.3
2019-05-14T16:01:14.362Z,46.6
2019-05-14T16:02:15.070Z,47.0
2019-05-14T16:04:31.262Z,47.3
2019-05-14T16:05:31.964Z,47.3
2019-05-14T16:06:32.671Z,46.6
2019-05-14T16:07:33.437Z,47.4
2019-05-14T16:08:34.109Z,48.2
2019-05-14T16:09:34.809Z,49.5
2019-05-14T16:10:35.571Z,50.9
2019-05-14T16:12:51.825Z,49.0
2019-05-14T16:13:52.533Z,49.2
2019-05-14T16:14:53.243Z,49.3
2019-05-14T16:15:53.941Z,48.9
2019-05-14T16:16:54.641Z,49.4
2019-05-14T16:18:07.669Z,49.5
2019-05-14T16:20:11.525Z,51.4
2019-05-14T16:21:12.232Z,52.3
2019-05-14T16:22:12.938Z,53.8
2019-05-14T16:23:13.683Z,53.3
2019-05-14T16:24:14.408Z,54.5
2019-05-14T16:25:15.109Z,54.4
2019-05-14T16:26:18.510Z,53.3
2019-05-14T16:27:19.536Z,53.6
2019-05-14T16:28:19.610Z,52.5
2019-05-14T16:29:19.263Z,51.4
2019-05-14T16:31:37.364Z,52.3
2019-05-14T16:32:35.089Z,51.9
2019-05-14T16:33:35.872Z,51.5
2019-05-14T16:34:40.929Z,52.6
2019-05-14T16:35:39.112Z,51.8
2019-05-14T16:36:41.389Z,50.7